sensor_id;sensor_type;location;lat;lon;timestamp;P1;durP1;ratioP1;P2;durP2;ratioP2
11616;SDS011;5864;52.998;9.068;2022-09-09T00:00:23;14.30;;;12.90;;
11616;SDS011;5864;52.998;9.068;2022-09-09T00:02:54;23.73;;;14.63;;
11616;SDS011;5864;52.998;9.068;2022-09-09T00:05:30;13.53;;;12.23;;
11616;SDS011;5864;52.998;9.068;2022-09-09T00:08:03;14.23;;;12.83;;
11616;SDS011;5864;52.998;9.068;2022-09-09T00:10:32;15.63;;;13.93;;
11616;SDS011;5864;52.998;9.068;2022-09-09T00:13:05;16.30;;;14.23;;
11616;SDS011;5864;52.998;9.068;2022-09-09T00:15:43;15.07;;;13.57;;
11616;SDS011;5864;52.998;9.068;2022-09-09T00:18:25;16.10;;;14.40;;
11616;SDS011;5864;52.998;9.068;2022-09-09T00:21:01;15.67;;;14.07;;
11616;SDS011;5864;52.998;9.068;2022-09-09T00:23:33;16.50;;;14.70;;
11616;SDS011;5864;52.998;9.068;2022-09-09T00:26:05;26.63;;;16.93;;
11616;SDS011;5864;52.998;9.068;2022-09-09T00:28:41;18.10;;;15.27;;
11616;SDS011;5864;52.998;9.068;2022-09-09T00:31:13;17.33;;;15.53;;
11616;SDS011;5864;52.998;9.068;2022-09-09T00:33:44;24.10;;;16.70;;
11616;SDS011;5864;52.998;9.068;2022-09-09T00:36:13;16.23;;;14.57;;
11616;SDS011;5864;52.998;9.068;2022-09-09T00:38:43;19.53;;;15.57;;
11616;SDS011;5864;52.998;9.068;2022-09-09T00:41:17;18.23;;;16.33;;
11616;SDS011;5864;52.998;9.068;2022-09-09T00:43:52;15.83;;;14.23;;
11616;SDS011;5864;52.998;9.068;2022-09-09T00:46:34;16.07;;;14.00;;
11616;SDS011;5864;52.998;9.068;2022-09-09T00:49:24;14.37;;;12.87;;
11616;SDS011;5864;52.998;9.068;2022-09-09T00:52:08;15.90;;;14.20;;
11616;SDS011;5864;52.998;9.068;2022-09-09T00:54:46;15.97;;;13.87;;
11616;SDS011;5864;52.998;9.068;2022-09-09T00:57:22;16.70;;;14.33;;
11616;SDS011;5864;52.998;9.068;2022-09-09T00:59:58;16.33;;;14.67;;
11616;SDS011;5864;52.998;9.068;2022-09-09T01:02:46;15.17;;;13.40;;
11616;SDS011;5864;52.998;9.068;2022-09-09T01:05:34;16.47;;;14.50;;
11616;SDS011;5864;52.998;9.068;2022-09-09T01:08:10;15.07;;;13.03;;
11616;SDS011;5864;52.998;9.068;2022-09-09T01:10:47;15.53;;;13.93;;
11616;SDS011;5864;52.998;9.068;2022-09-09T01:13:21;15.13;;;13.53;;
11616;SDS011;5864;52.998;9.068;2022-09-09T01:15:52;14.43;;;12.17;;
11616;SDS011;5864;52.998;9.068;2022-09-09T01:18:21;13.43;;;11.30;;
11616;SDS011;5864;52.998;9.068;2022-09-09T01:20:54;14.13;;;12.63;;
11616;SDS011;5864;52.998;9.068;2022-09-09T01:23:35;13.83;;;12.43;;
11616;SDS011;5864;52.998;9.068;2022-09-09T01:26:14;13.67;;;12.27;;
11616;SDS011;5864;52.998;9.068;2022-09-09T01:28:46;12.77;;;11.23;;
11616;SDS011;5864;52.998;9.068;2022-09-09T01:31:19;12.47;;;11.23;;
11616;SDS011;5864;52.998;9.068;2022-09-09T01:33:48;12.73;;;11.30;;
11616;SDS011;5864;52.998;9.068;2022-09-09T01:36:19;13.10;;;11.80;;
11616;SDS011;5864;52.998;9.068;2022-09-09T01:38:51;14.53;;;11.87;;
11616;SDS011;5864;52.998;9.068;2022-09-09T01:41:21;12.37;;;11.17;;
11616;SDS011;5864;52.998;9.068;2022-09-09T01:43:49;15.00;;;11.77;;
11616;SDS011;5864;52.998;9.068;2022-09-09T01:46:17;11.53;;;10.03;;
11616;SDS011;5864;52.998;9.068;2022-09-09T01:48:48;12.63;;;10.43;;
11616;SDS011;5864;52.998;9.068;2022-09-09T01:51:17;12.27;;;11.07;;
11616;SDS011;5864;52.998;9.068;2022-09-09T01:53:46;10.90;;;9.37;;
11616;SDS011;5864;52.998;9.068;2022-09-09T01:56:24;10.60;;;9.50;;
11616;SDS011;5864;52.998;9.068;2022-09-09T01:59:12;14.03;;;10.23;;
11616;SDS011;5864;52.998;9.068;2022-09-09T02:01:55;12.67;;;10.33;;
11616;SDS011;5864;52.998;9.068;2022-09-09T02:04:36;10.47;;;9.27;;
11616;SDS011;5864;52.998;9.068;2022-09-09T02:07:06;11.90;;;10.70;;
11616;SDS011;5864;52.998;9.068;2022-09-09T02:09:47;12.60;;;11.07;;
11616;SDS011;5864;52.998;9.068;2022-09-09T02:12:20;12.47;;;11.17;;
11616;SDS011;5864;52.998;9.068;2022-09-09T02:14:52;12.70;;;11.40;;
11616;SDS011;5864;52.998;9.068;2022-09-09T02:17:25;12.80;;;11.50;;
11616;SDS011;5864;52.998;9.068;2022-09-09T02:19:59;13.93;;;12.13;;
11616;SDS011;5864;52.998;9.068;2022-09-09T02:22:31;13.37;;;10.37;;
11616;SDS011;5864;52.998;9.068;2022-09-09T02:25:01;12.07;;;10.93;;
11616;SDS011;5864;52.998;9.068;2022-09-09T02:27:32;14.53;;;11.30;;
11616;SDS011;5864;52.998;9.068;2022-09-09T02:30:01;14.73;;;11.20;;
11616;SDS011;5864;52.998;9.068;2022-09-09T02:32:30;14.20;;;11.33;;
11616;SDS011;5864;52.998;9.068;2022-09-09T02:35:02;12.43;;;11.13;;
11616;SDS011;5864;52.998;9.068;2022-09-09T02:37:34;12.17;;;10.57;;
11616;SDS011;5864;52.998;9.068;2022-09-09T02:40:04;12.03;;;10.40;;
11616;SDS011;5864;52.998;9.068;2022-09-09T02:42:39;12.93;;;10.57;;
11616;SDS011;5864;52.998;9.068;2022-09-09T02:45:07;10.90;;;9.80;;
11616;SDS011;5864;52.998;9.068;2022-09-09T02:47:37;10.60;;;9.50;;
11616;SDS011;5864;52.998;9.068;2022-09-09T02:50:12;13.60;;;10.17;;
11616;SDS011;5864;52.998;9.068;2022-09-09T02:52:50;12.60;;;9.77;;
11616;SDS011;5864;52.998;9.068;2022-09-09T02:55:28;10.30;;;8.97;;
11616;SDS011;5864;52.998;9.068;2022-09-09T02:58:05;10.03;;;9.03;;
11616;SDS011;5864;52.998;9.068;2022-09-09T03:00:36;10.70;;;9.40;;
11616;SDS011;5864;52.998;9.068;2022-09-09T03:03:05;9.97;;;8.93;;
11616;SDS011;5864;52.998;9.068;2022-09-09T03:05:34;9.63;;;8.27;;
11616;SDS011;5864;52.998;9.068;2022-09-09T03:08:02;9.10;;;8.10;;
11616;SDS011;5864;52.998;9.068;2022-09-09T03:10:31;9.10;;;7.80;;
11616;SDS011;5864;52.998;9.068;2022-09-09T03:12:58;9.30;;;8.40;;
11616;SDS011;5864;52.998;9.068;2022-09-09T03:15:27;10.93;;;8.70;;
11616;SDS011;5864;52.998;9.068;2022-09-09T03:17:55;9.03;;;8.13;;
11616;SDS011;5864;52.998;9.068;2022-09-09T03:20:23;8.60;;;7.30;;
11616;SDS011;5864;52.998;9.068;2022-09-09T03:22:52;10.87;;;7.70;;
11616;SDS011;5864;52.998;9.068;2022-09-09T03:25:19;10.23;;;7.07;;
11616;SDS011;5864;52.998;9.068;2022-09-09T03:27:49;7.50;;;6.80;;
11616;SDS011;5864;52.998;9.068;2022-09-09T03:30:18;7.97;;;6.73;;
11616;SDS011;5864;52.998;9.068;2022-09-09T03:32:48;7.07;;;6.37;;
11616;SDS011;5864;52.998;9.068;2022-09-09T03:35:15;8.87;;;7.00;;
11616;SDS011;5864;52.998;9.068;2022-09-09T03:37:43;6.70;;;6.10;;
11616;SDS011;5864;52.998;9.068;2022-09-09T03:40:12;9.00;;;6.90;;
11616;SDS011;5864;52.998;9.068;2022-09-09T03:42:40;8.83;;;6.53;;
11616;SDS011;5864;52.998;9.068;2022-09-09T03:45:08;7.00;;;6.17;;
11616;SDS011;5864;52.998;9.068;2022-09-09T03:47:37;7.17;;;5.97;;
11616;SDS011;5864;52.998;9.068;2022-09-09T03:50:06;7.67;;;6.30;;
11616;SDS011;5864;52.998;9.068;2022-09-09T03:52:36;7.17;;;5.80;;
11616;SDS011;5864;52.998;9.068;2022-09-09T03:55:04;6.07;;;5.17;;
11616;SDS011;5864;52.998;9.068;2022-09-09T03:57:32;7.33;;;5.20;;
11616;SDS011;5864;52.998;9.068;2022-09-09T04:00:02;7.63;;;4.60;;
11616;SDS011;5864;52.998;9.068;2022-09-09T04:02:30;4.63;;;4.17;;
11616;SDS011;5864;52.998;9.068;2022-09-09T04:04:58;6.00;;;3.40;;
11616;SDS011;5864;52.998;9.068;2022-09-09T04:07:28;5.20;;;4.50;;
11616;SDS011;5864;52.998;9.068;2022-09-09T04:09:55;6.30;;;3.70;;
11616;SDS011;5864;52.998;9.068;2022-09-09T04:12:23;6.00;;;3.80;;
11616;SDS011;5864;52.998;9.068;2022-09-09T04:14:50;4.67;;;3.70;;
11616;SDS011;5864;52.998;9.068;2022-09-09T04:17:18;5.07;;;3.40;;
11616;SDS011;5864;52.998;9.068;2022-09-09T04:19:45;5.03;;;3.83;;
11616;SDS011;5864;52.998;9.068;2022-09-09T04:22:13;9.37;;;3.70;;
11616;SDS011;5864;52.998;9.068;2022-09-09T04:24:41;6.60;;;3.83;;
11616;SDS011;5864;52.998;9.068;2022-09-09T04:27:09;5.20;;;3.40;;
11616;SDS011;5864;52.998;9.068;2022-09-09T04:29:36;7.13;;;3.13;;
11616;SDS011;5864;52.998;9.068;2022-09-09T04:32:04;4.40;;;3.50;;
11616;SDS011;5864;52.998;9.068;2022-09-09T04:34:32;3.83;;;3.13;;
11616;SDS011;5864;52.998;9.068;2022-09-09T04:37:05;5.93;;;3.33;;
11616;SDS011;5864;52.998;9.068;2022-09-09T04:39:33;3.50;;;2.80;;
11616;SDS011;5864;52.998;9.068;2022-09-09T04:42:02;4.70;;;3.00;;
11616;SDS011;5864;52.998;9.068;2022-09-09T04:44:29;4.60;;;2.80;;
11616;SDS011;5864;52.998;9.068;2022-09-09T04:46:57;3.90;;;2.87;;
11616;SDS011;5864;52.998;9.068;2022-09-09T04:49:25;4.57;;;3.00;;
11616;SDS011;5864;52.998;9.068;2022-09-09T04:51:52;4.20;;;2.97;;
11616;SDS011;5864;52.998;9.068;2022-09-09T04:54:20;3.37;;;2.87;;
11616;SDS011;5864;52.998;9.068;2022-09-09T04:56:47;4.23;;;3.00;;
11616;SDS011;5864;52.998;9.068;2022-09-09T04:59:18;5.10;;;3.50;;
11616;SDS011;5864;52.998;9.068;2022-09-09T05:01:46;6.40;;;2.83;;
11616;SDS011;5864;52.998;9.068;2022-09-09T05:04:13;3.27;;;2.70;;
11616;SDS011;5864;52.998;9.068;2022-09-09T05:06:41;6.40;;;2.80;;
11616;SDS011;5864;52.998;9.068;2022-09-09T05:09:09;4.47;;;2.77;;
11616;SDS011;5864;52.998;9.068;2022-09-09T05:11:36;4.77;;;2.70;;
11616;SDS011;5864;52.998;9.068;2022-09-09T05:14:04;4.87;;;3.07;;
11616;SDS011;5864;52.998;9.068;2022-09-09T05:16:33;5.07;;;2.70;;
11616;SDS011;5864;52.998;9.068;2022-09-09T05:19:00;6.27;;;2.80;;
11616;SDS011;5864;52.998;9.068;2022-09-09T05:21:28;4.13;;;2.40;;
11616;SDS011;5864;52.998;9.068;2022-09-09T05:23:57;4.37;;;3.10;;
11616;SDS011;5864;52.998;9.068;2022-09-09T05:26:26;3.23;;;2.83;;
11616;SDS011;5864;52.998;9.068;2022-09-09T05:28:54;4.77;;;3.20;;
11616;SDS011;5864;52.998;9.068;2022-09-09T05:31:22;5.13;;;2.70;;
11616;SDS011;5864;52.998;9.068;2022-09-09T05:33:54;5.40;;;2.63;;
11616;SDS011;5864;52.998;9.068;2022-09-09T05:36:22;4.90;;;2.60;;
11616;SDS011;5864;52.998;9.068;2022-09-09T05:38:50;4.23;;;2.63;;
11616;SDS011;5864;52.998;9.068;2022-09-09T05:41:19;4.17;;;2.90;;
11616;SDS011;5864;52.998;9.068;2022-09-09T05:43:48;2.83;;;2.60;;
11616;SDS011;5864;52.998;9.068;2022-09-09T05:46:16;4.47;;;2.80;;
11616;SDS011;5864;52.998;9.068;2022-09-09T05:48:45;5.57;;;3.20;;
11616;SDS011;5864;52.998;9.068;2022-09-09T05:51:17;3.93;;;3.03;;
11616;SDS011;5864;52.998;9.068;2022-09-09T05:53:47;4.60;;;2.43;;
11616;SDS011;5864;52.998;9.068;2022-09-09T05:56:17;4.50;;;2.50;;
11616;SDS011;5864;52.998;9.068;2022-09-09T05:58:45;4.73;;;2.73;;
11616;SDS011;5864;52.998;9.068;2022-09-09T06:01:15;4.87;;;2.50;;
11616;SDS011;5864;52.998;9.068;2022-09-09T06:03:44;4.37;;;2.53;;
11616;SDS011;5864;52.998;9.068;2022-09-09T06:06:13;2.90;;;2.60;;
11616;SDS011;5864;52.998;9.068;2022-09-09T06:08:44;4.10;;;2.70;;
11616;SDS011;5864;52.998;9.068;2022-09-09T06:11:13;3.83;;;3.07;;
11616;SDS011;5864;52.998;9.068;2022-09-09T06:13:42;4.60;;;2.90;;
11616;SDS011;5864;52.998;9.068;2022-09-09T06:16:10;4.43;;;2.83;;
11616;SDS011;5864;52.998;9.068;2022-09-09T06:18:39;4.43;;;3.03;;
11616;SDS011;5864;52.998;9.068;2022-09-09T06:21:08;8.03;;;3.10;;
11616;SDS011;5864;52.998;9.068;2022-09-09T06:23:41;5.00;;;2.50;;
11616;SDS011;5864;52.998;9.068;2022-09-09T06:26:11;6.40;;;2.97;;
11616;SDS011;5864;52.998;9.068;2022-09-09T06:28:40;4.00;;;2.63;;
11616;SDS011;5864;52.998;9.068;2022-09-09T06:31:08;3.23;;;2.63;;
11616;SDS011;5864;52.998;9.068;2022-09-09T06:33:37;5.13;;;2.57;;
11616;SDS011;5864;52.998;9.068;2022-09-09T06:36:07;2.40;;;2.00;;
11616;SDS011;5864;52.998;9.068;2022-09-09T06:38:36;4.20;;;2.17;;
11616;SDS011;5864;52.998;9.068;2022-09-09T06:41:04;4.27;;;1.90;;
11616;SDS011;5864;52.998;9.068;2022-09-09T06:43:33;2.00;;;1.57;;
11616;SDS011;5864;52.998;9.068;2022-09-09T06:46:01;2.17;;;1.80;;
11616;SDS011;5864;52.998;9.068;2022-09-09T06:48:31;4.17;;;1.90;;
11616;SDS011;5864;52.998;9.068;2022-09-09T06:51:03;2.50;;;1.67;;
11616;SDS011;5864;52.998;9.068;2022-09-09T06:53:32;2.90;;;1.70;;
11616;SDS011;5864;52.998;9.068;2022-09-09T06:56:00;5.33;;;1.80;;
11616;SDS011;5864;52.998;9.068;2022-09-09T06:58:28;3.73;;;1.83;;
11616;SDS011;5864;52.998;9.068;2022-09-09T07:01:02;2.70;;;1.70;;
11616;SDS011;5864;52.998;9.068;2022-09-09T07:03:31;4.07;;;1.80;;
11616;SDS011;5864;52.998;9.068;2022-09-09T07:05:59;1.83;;;1.50;;
11616;SDS011;5864;52.998;9.068;2022-09-09T07:08:26;2.77;;;1.80;;
11616;SDS011;5864;52.998;9.068;2022-09-09T07:11:01;2.50;;;1.73;;
11616;SDS011;5864;52.998;9.068;2022-09-09T07:13:30;4.47;;;1.90;;
11616;SDS011;5864;52.998;9.068;2022-09-09T07:16:04;3.20;;;1.60;;
11616;SDS011;5864;52.998;9.068;2022-09-09T07:18:32;3.40;;;1.70;;
11616;SDS011;5864;52.998;9.068;2022-09-09T07:21:00;2.87;;;1.47;;
11616;SDS011;5864;52.998;9.068;2022-09-09T07:23:30;5.07;;;1.70;;
11616;SDS011;5864;52.998;9.068;2022-09-09T07:25:58;3.53;;;1.20;;
11616;SDS011;5864;52.998;9.068;2022-09-09T07:28:26;2.47;;;1.30;;
11616;SDS011;5864;52.998;9.068;2022-09-09T07:30:54;2.90;;;1.73;;
11616;SDS011;5864;52.998;9.068;2022-09-09T07:33:24;2.30;;;1.43;;
11616;SDS011;5864;52.998;9.068;2022-09-09T07:35:52;4.37;;;2.13;;
11616;SDS011;5864;52.998;9.068;2022-09-09T07:38:20;4.17;;;1.30;;
11616;SDS011;5864;52.998;9.068;2022-09-09T07:40:48;2.93;;;1.30;;
11616;SDS011;5864;52.998;9.068;2022-09-09T07:43:16;3.40;;;1.53;;
11616;SDS011;5864;52.998;9.068;2022-09-09T07:45:44;4.53;;;1.30;;
11616;SDS011;5864;52.998;9.068;2022-09-09T07:48:12;3.67;;;1.40;;
11616;SDS011;5864;52.998;9.068;2022-09-09T07:50:41;4.37;;;1.53;;
11616;SDS011;5864;52.998;9.068;2022-09-09T07:53:09;3.43;;;1.63;;
11616;SDS011;5864;52.998;9.068;2022-09-09T07:55:36;3.57;;;1.57;;
11616;SDS011;5864;52.998;9.068;2022-09-09T07:58:04;2.53;;;1.50;;
11616;SDS011;5864;52.998;9.068;2022-09-09T08:00:31;2.80;;;1.40;;
11616;SDS011;5864;52.998;9.068;2022-09-09T08:02:59;3.73;;;1.57;;
11616;SDS011;5864;52.998;9.068;2022-09-09T08:05:27;2.60;;;1.50;;
11616;SDS011;5864;52.998;9.068;2022-09-09T08:07:56;3.57;;;1.30;;
11616;SDS011;5864;52.998;9.068;2022-09-09T08:10:24;2.23;;;1.23;;
11616;SDS011;5864;52.998;9.068;2022-09-09T08:12:51;2.20;;;1.57;;
11616;SDS011;5864;52.998;9.068;2022-09-09T08:15:19;4.33;;;1.70;;
11616;SDS011;5864;52.998;9.068;2022-09-09T08:17:46;3.03;;;1.50;;
11616;SDS011;5864;52.998;9.068;2022-09-09T08:20:14;3.67;;;1.43;;
11616;SDS011;5864;52.998;9.068;2022-09-09T08:22:42;3.37;;;1.27;;
11616;SDS011;5864;52.998;9.068;2022-09-09T08:25:10;2.97;;;1.30;;
11616;SDS011;5864;52.998;9.068;2022-09-09T08:27:38;3.33;;;1.90;;
11616;SDS011;5864;52.998;9.068;2022-09-09T08:30:05;3.10;;;1.60;;
11616;SDS011;5864;52.998;9.068;2022-09-09T08:32:34;4.07;;;1.90;;
11616;SDS011;5864;52.998;9.068;2022-09-09T08:35:01;6.57;;;2.27;;
11616;SDS011;5864;52.998;9.068;2022-09-09T08:37:29;3.53;;;2.00;;
11616;SDS011;5864;52.998;9.068;2022-09-09T08:39:57;4.73;;;2.00;;
11616;SDS011;5864;52.998;9.068;2022-09-09T08:42:28;3.97;;;1.87;;
11616;SDS011;5864;52.998;9.068;2022-09-09T08:45:06;3.77;;;1.73;;
11616;SDS011;5864;52.998;9.068;2022-09-09T08:47:44;4.07;;;1.70;;
11616;SDS011;5864;52.998;9.068;2022-09-09T08:50:21;2.30;;;1.77;;
11616;SDS011;5864;52.998;9.068;2022-09-09T08:52:54;4.27;;;1.70;;
11616;SDS011;5864;52.998;9.068;2022-09-09T08:55:29;3.17;;;1.60;;
11616;SDS011;5864;52.998;9.068;2022-09-09T08:58:09;2.93;;;1.60;;
11616;SDS011;5864;52.998;9.068;2022-09-09T09:00:42;3.40;;;1.80;;
11616;SDS011;5864;52.998;9.068;2022-09-09T09:03:26;3.90;;;1.43;;
11616;SDS011;5864;52.998;9.068;2022-09-09T09:06:01;5.17;;;1.93;;
11616;SDS011;5864;52.998;9.068;2022-09-09T09:08:35;3.97;;;2.00;;
11616;SDS011;5864;52.998;9.068;2022-09-09T09:11:10;6.13;;;1.90;;
11616;SDS011;5864;52.998;9.068;2022-09-09T09:13:40;4.77;;;2.00;;
11616;SDS011;5864;52.998;9.068;2022-09-09T09:16:18;3.53;;;2.10;;
11616;SDS011;5864;52.998;9.068;2022-09-09T09:18:51;4.70;;;1.90;;
11616;SDS011;5864;52.998;9.068;2022-09-09T09:21:21;3.93;;;2.00;;
11616;SDS011;5864;52.998;9.068;2022-09-09T09:23:56;3.27;;;1.90;;
11616;SDS011;5864;52.998;9.068;2022-09-09T09:26:25;3.83;;;2.17;;
11616;SDS011;5864;52.998;9.068;2022-09-09T09:28:59;3.37;;;2.00;;
11616;SDS011;5864;52.998;9.068;2022-09-09T09:31:35;4.77;;;2.37;;
11616;SDS011;5864;52.998;9.068;2022-09-09T09:34:03;6.30;;;2.20;;
11616;SDS011;5864;52.998;9.068;2022-09-09T09:36:37;6.40;;;2.07;;
11616;SDS011;5864;52.998;9.068;2022-09-09T09:39:08;5.07;;;2.40;;
11616;SDS011;5864;52.998;9.068;2022-09-09T09:41:36;6.93;;;2.13;;
11616;SDS011;5864;52.998;9.068;2022-09-09T09:44:21;4.23;;;2.10;;
11616;SDS011;5864;52.998;9.068;2022-09-09T09:46:51;5.00;;;2.20;;
11616;SDS011;5864;52.998;9.068;2022-09-09T09:49:19;10.23;;;2.80;;
11616;SDS011;5864;52.998;9.068;2022-09-09T09:51:47;4.70;;;2.30;;
11616;SDS011;5864;52.998;9.068;2022-09-09T09:54:17;3.47;;;2.40;;
11616;SDS011;5864;52.998;9.068;2022-09-09T09:56:49;4.67;;;2.20;;
11616;SDS011;5864;52.998;9.068;2022-09-09T09:59:23;5.67;;;2.40;;
11616;SDS011;5864;52.998;9.068;2022-09-09T10:02:17;6.83;;;2.27;;
11616;SDS011;5864;52.998;9.068;2022-09-09T10:04:46;4.37;;;2.30;;
11616;SDS011;5864;52.998;9.068;2022-09-09T10:07:17;5.63;;;1.90;;
11616;SDS011;5864;52.998;9.068;2022-09-09T10:09:46;1.83;;;1.50;;
11616;SDS011;5864;52.998;9.068;2022-09-09T10:12:22;4.93;;;1.83;;
11616;SDS011;5864;52.998;9.068;2022-09-09T10:15:00;3.80;;;2.00;;
11616;SDS011;5864;52.998;9.068;2022-09-09T10:17:35;4.50;;;1.87;;
11616;SDS011;5864;52.998;9.068;2022-09-09T10:20:15;7.90;;;2.50;;
11616;SDS011;5864;52.998;9.068;2022-09-09T10:22:52;4.63;;;2.00;;
11616;SDS011;5864;52.998;9.068;2022-09-09T10:25:34;3.77;;;2.00;;
11616;SDS011;5864;52.998;9.068;2022-09-09T10:28:18;5.20;;;1.97;;
11616;SDS011;5864;52.998;9.068;2022-09-09T10:31:04;3.37;;;2.00;;
11616;SDS011;5864;52.998;9.068;2022-09-09T10:33:43;4.97;;;2.13;;
11616;SDS011;5864;52.998;9.068;2022-09-09T10:36:17;3.37;;;2.10;;
11616;SDS011;5864;52.998;9.068;2022-09-09T10:38:48;5.13;;;2.20;;
11616;SDS011;5864;52.998;9.068;2022-09-09T10:41:24;3.53;;;1.63;;
11616;SDS011;5864;52.998;9.068;2022-09-09T10:47:17;6.90;;;2.10;;
11616;SDS011;5864;52.998;9.068;2022-09-09T10:50:06;6.20;;;2.33;;
11616;SDS011;5864;52.998;9.068;2022-09-09T10:52:51;3.37;;;1.90;;
11616;SDS011;5864;52.998;9.068;2022-09-09T10:55:28;4.17;;;1.97;;
11616;SDS011;5864;52.998;9.068;2022-09-09T10:58:03;5.20;;;2.00;;
11616;SDS011;5864;52.998;9.068;2022-09-09T11:00:37;4.70;;;2.53;;
11616;SDS011;5864;52.998;9.068;2022-09-09T11:03:11;9.07;;;2.67;;
11616;SDS011;5864;52.998;9.068;2022-09-09T11:05:46;5.50;;;2.20;;
11616;SDS011;5864;52.998;9.068;2022-09-09T11:08:19;5.83;;;2.27;;
11616;SDS011;5864;52.998;9.068;2022-09-09T11:10:49;5.93;;;2.40;;
11616;SDS011;5864;52.998;9.068;2022-09-09T11:13:24;5.77;;;2.20;;
11616;SDS011;5864;52.998;9.068;2022-09-09T11:15:59;7.23;;;2.20;;
11616;SDS011;5864;52.998;9.068;2022-09-09T11:18:33;4.23;;;2.27;;
11616;SDS011;5864;52.998;9.068;2022-09-09T11:21:08;5.30;;;2.30;;
11616;SDS011;5864;52.998;9.068;2022-09-09T11:23:43;3.70;;;2.27;;
11616;SDS011;5864;52.998;9.068;2022-09-09T11:26:16;5.27;;;2.30;;
11616;SDS011;5864;52.998;9.068;2022-09-09T11:28:55;5.53;;;2.50;;
11616;SDS011;5864;52.998;9.068;2022-09-09T11:31:38;5.83;;;2.10;;
11616;SDS011;5864;52.998;9.068;2022-09-09T11:34:19;5.63;;;2.20;;
11616;SDS011;5864;52.998;9.068;2022-09-09T11:40:18;5.20;;;2.30;;
11616;SDS011;5864;52.998;9.068;2022-09-09T11:42:48;6.07;;;2.40;;
11616;SDS011;5864;52.998;9.068;2022-09-09T11:45:27;7.43;;;3.10;;
11616;SDS011;5864;52.998;9.068;2022-09-09T11:47:56;8.13;;;3.20;;
11616;SDS011;5864;52.998;9.068;2022-09-09T11:50:33;5.40;;;3.10;;
11616;SDS011;5864;52.998;9.068;2022-09-09T11:53:03;9.63;;;3.20;;
11616;SDS011;5864;52.998;9.068;2022-09-09T11:55:48;12.30;;;3.60;;
11616;SDS011;5864;52.998;9.068;2022-09-09T11:58:33;14.45;;;4.57;;
11616;SDS011;5864;52.998;9.068;2022-09-09T12:01:13;15.23;;;4.80;;
11616;SDS011;5864;52.998;9.068;2022-09-09T12:03:43;9.17;;;4.23;;
11616;SDS011;5864;52.998;9.068;2022-09-09T12:06:17;11.33;;;3.47;;
11616;SDS011;5864;52.998;9.068;2022-09-09T12:08:53;6.80;;;3.23;;
11616;SDS011;5864;52.998;9.068;2022-09-09T12:11:31;6.07;;;3.80;;
11616;SDS011;5864;52.998;9.068;2022-09-09T12:13:58;7.50;;;4.37;;
11616;SDS011;5864;52.998;9.068;2022-09-09T12:16:28;8.87;;;4.87;;
11616;SDS011;5864;52.998;9.068;2022-09-09T12:19:06;7.80;;;4.10;;
11616;SDS011;5864;52.998;9.068;2022-09-09T12:21:44;11.23;;;4.27;;
11616;SDS011;5864;52.998;9.068;2022-09-09T12:24:17;9.23;;;4.20;;
11616;SDS011;5864;52.998;9.068;2022-09-09T12:26:51;5.90;;;3.10;;
11616;SDS011;5864;52.998;9.068;2022-09-09T12:29:27;6.37;;;3.50;;
11616;SDS011;5864;52.998;9.068;2022-09-09T12:32:04;6.33;;;3.50;;
11616;SDS011;5864;52.998;9.068;2022-09-09T12:34:38;6.60;;;3.83;;
11616;SDS011;5864;52.998;9.068;2022-09-09T12:37:11;4.23;;;2.97;;
11616;SDS011;5864;52.998;9.068;2022-09-09T12:39:44;8.07;;;3.50;;
11616;SDS011;5864;52.998;9.068;2022-09-09T12:42:16;5.13;;;2.77;;
11616;SDS011;5864;52.998;9.068;2022-09-09T12:44:55;7.73;;;6.97;;
11616;SDS011;5864;52.998;9.068;2022-09-09T12:47:26;7.97;;;6.57;;
11616;SDS011;5864;52.998;9.068;2022-09-09T12:50:01;6.97;;;4.07;;
11616;SDS011;5864;52.998;9.068;2022-09-09T12:52:31;4.70;;;3.00;;
11616;SDS011;5864;52.998;9.068;2022-09-09T12:55:03;5.23;;;4.47;;
11616;SDS011;5864;52.998;9.068;2022-09-09T12:57:35;10.37;;;8.63;;
11616;SDS011;5864;52.998;9.068;2022-09-09T13:00:07;10.60;;;9.70;;
11616;SDS011;5864;52.998;9.068;2022-09-09T13:02:50;10.53;;;9.60;;
11616;SDS011;5864;52.998;9.068;2022-09-09T13:05:20;14.20;;;13.10;;
11616;SDS011;5864;52.998;9.068;2022-09-09T13:07:50;12.73;;;11.53;;
11616;SDS011;5864;52.998;9.068;2022-09-09T13:10:23;9.30;;;5.40;;
11616;SDS011;5864;52.998;9.068;2022-09-09T13:12:54;5.37;;;2.90;;
11616;SDS011;5864;52.998;9.068;2022-09-09T13:15:24;7.83;;;3.50;;
11616;SDS011;5864;52.998;9.068;2022-09-09T13:17:55;9.23;;;2.90;;
11616;SDS011;5864;52.998;9.068;2022-09-09T13:20:26;5.20;;;3.40;;
11616;SDS011;5864;52.998;9.068;2022-09-09T13:22:55;5.73;;;2.70;;
11616;SDS011;5864;52.998;9.068;2022-09-09T13:25:24;5.37;;;2.87;;
11616;SDS011;5864;52.998;9.068;2022-09-09T13:27:53;3.23;;;2.20;;
11616;SDS011;5864;52.998;9.068;2022-09-09T13:30:24;3.60;;;2.13;;
11616;SDS011;5864;52.998;9.068;2022-09-09T13:33:17;4.63;;;2.00;;
11616;SDS011;5864;52.998;9.068;2022-09-09T13:35:49;4.13;;;1.90;;
11616;SDS011;5864;52.998;9.068;2022-09-09T13:38:21;3.83;;;1.60;;
11616;SDS011;5864;52.998;9.068;2022-09-09T13:40:54;3.37;;;1.70;;
11616;SDS011;5864;52.998;9.068;2022-09-09T13:43:25;2.40;;;1.60;;
11616;SDS011;5864;52.998;9.068;2022-09-09T13:45:54;6.57;;;1.73;;
11616;SDS011;5864;52.998;9.068;2022-09-09T13:48:23;6.17;;;1.53;;
11616;SDS011;5864;52.998;9.068;2022-09-09T13:50:59;3.17;;;1.80;;
11616;SDS011;5864;52.998;9.068;2022-09-09T13:53:31;2.43;;;1.50;;
11616;SDS011;5864;52.998;9.068;2022-09-09T13:55:58;2.60;;;1.40;;
11616;SDS011;5864;52.998;9.068;2022-09-09T13:58:26;2.80;;;1.70;;
11616;SDS011;5864;52.998;9.068;2022-09-09T14:00:54;2.90;;;1.50;;
11616;SDS011;5864;52.998;9.068;2022-09-09T14:03:22;2.63;;;1.17;;
11616;SDS011;5864;52.998;9.068;2022-09-09T14:05:50;4.37;;;1.60;;
11616;SDS011;5864;52.998;9.068;2022-09-09T14:08:23;3.53;;;1.80;;
11616;SDS011;5864;52.998;9.068;2022-09-09T14:10:54;2.40;;;1.30;;
11616;SDS011;5864;52.998;9.068;2022-09-09T14:13:23;4.07;;;1.67;;
11616;SDS011;5864;52.998;9.068;2022-09-09T14:15:51;4.43;;;1.80;;
11616;SDS011;5864;52.998;9.068;2022-09-09T14:18:19;3.20;;;1.50;;
11616;SDS011;5864;52.998;9.068;2022-09-09T14:20:48;4.23;;;1.63;;
11616;SDS011;5864;52.998;9.068;2022-09-09T14:23:16;3.00;;;1.50;;
11616;SDS011;5864;52.998;9.068;2022-09-09T14:25:44;3.77;;;1.60;;
11616;SDS011;5864;52.998;9.068;2022-09-09T14:28:13;2.97;;;1.90;;
11616;SDS011;5864;52.998;9.068;2022-09-09T14:30:42;2.23;;;1.63;;
11616;SDS011;5864;52.998;9.068;2022-09-09T14:33:11;4.53;;;2.20;;
11616;SDS011;5864;52.998;9.068;2022-09-09T14:35:42;3.30;;;1.70;;
11616;SDS011;5864;52.998;9.068;2022-09-09T14:38:09;2.57;;;1.77;;
11616;SDS011;5864;52.998;9.068;2022-09-09T14:40:38;4.97;;;2.00;;
11616;SDS011;5864;52.998;9.068;2022-09-09T14:43:05;3.57;;;2.03;;
11616;SDS011;5864;52.998;9.068;2022-09-09T14:45:35;3.50;;;2.07;;
11616;SDS011;5864;52.998;9.068;2022-09-09T14:48:03;5.47;;;2.30;;
11616;SDS011;5864;52.998;9.068;2022-09-09T14:50:31;2.87;;;2.00;;
11616;SDS011;5864;52.998;9.068;2022-09-09T14:53:00;4.17;;;2.20;;
11616;SDS011;5864;52.998;9.068;2022-09-09T14:55:27;7.17;;;2.60;;
11616;SDS011;5864;52.998;9.068;2022-09-09T14:57:55;4.83;;;2.80;;
11616;SDS011;5864;52.998;9.068;2022-09-09T15:00:22;4.00;;;2.40;;
11616;SDS011;5864;52.998;9.068;2022-09-09T15:02:53;5.13;;;2.70;;
11616;SDS011;5864;52.998;9.068;2022-09-09T15:05:21;5.30;;;3.23;;
11616;SDS011;5864;52.998;9.068;2022-09-09T15:07:49;4.53;;;2.63;;
11616;SDS011;5864;52.998;9.068;2022-09-09T15:10:17;5.87;;;2.70;;
11616;SDS011;5864;52.998;9.068;2022-09-09T15:12:44;3.70;;;2.10;;
11616;SDS011;5864;52.998;9.068;2022-09-09T15:15:12;4.97;;;2.10;;
11616;SDS011;5864;52.998;9.068;2022-09-09T15:17:40;5.17;;;2.33;;
11616;SDS011;5864;52.998;9.068;2022-09-09T15:20:09;6.07;;;2.20;;
11616;SDS011;5864;52.998;9.068;2022-09-09T15:22:37;4.60;;;2.00;;
11616;SDS011;5864;52.998;9.068;2022-09-09T15:25:06;4.43;;;2.20;;
11616;SDS011;5864;52.998;9.068;2022-09-09T15:27:34;4.90;;;2.40;;